Time;durP1;ratioP1;P1;durP2;ratioP2;P2;SDS_P1;SDS_P2;PMS_P1;PMS_P2;Temp;Humidity;BMP_temperature;BMP_pressure;BME280_temperature;BME280_humidity;BME280_pressure;Samples;Min_cycle;Max_cycle;Signal;HPM_P1;HPM_P2
2023/12/15 00:01:48;;;;;;;12.02;6.28;;;;;;;2.54;100.00;94863.50;5114505;28;20039;-68
2023/12/15 00:04:35;;;;;;;12.82;7.03;;;;;;;2.38;100.00;94869.59;5112213;28;20039;-68
2023/12/15 00:07:21;;;;;;;10.93;5.80;;;;;;;2.48;100.00;94868.34;5114180;28;20043;-68
2023/12/15 00:10:09;;;;;;;10.53;5.60;;;;;;;2.33;100.00;94860.91;5115509;28;20040;-68
2023/12/15 00:12:55;;;;;;;12.77;6.20;;;;;;;2.39;100.00;94873.09;5115653;28;20062;-68
2023/12/15 00:15:42;;;;;;;10.75;5.97;;;;;;;2.27;100.00;94875.81;5113764;28;20055;-71
2023/12/15 00:18:29;;;;;;;11.75;6.30;;;;;;;2.32;100.00;94872.91;5104164;28;20059;-68
2023/12/15 00:21:17;;;;;;;13.10;6.43;;;;;;;2.26;100.00;94877.75;5113826;28;20400;-68
2023/12/15 00:24:08;;;;;;;12.40;6.00;;;;;;;2.22;100.00;94882.25;5113171;28;20047;-68
2023/12/15 00:26:55;;;;;;;9.35;4.85;;;;;;;2.37;100.00;94884.28;5103073;28;20055;-68
2023/12/15 00:29:42;;;;;;;12.85;6.00;;;;;;;2.36;100.00;94888.13;5108759;28;20047;-68
2023/12/15 00:32:29;;;;;;;10.98;5.53;;;;;;;2.24;100.00;94879.22;5113782;28;20106;-68
2023/12/15 00:35:17;;;;;;;22.42;10.80;;;;;;;2.34;100.00;94882.25;5114248;28;20047;-68
2023/12/15 00:38:04;;;;;;;11.43;5.97;;;;;;;1.96;100.00;94896.88;5114570;28;20048;-68
2023/12/15 00:40:51;;;;;;;11.00;5.40;;;;;;;2.22;100.00;94886.88;5103988;28;20132;-68
2023/12/15 00:43:38;;;;;;;11.73;6.07;;;;;;;2.44;100.00;94902.69;5112723;28;20046;-68
2023/12/15 00:46:25;;;;;;;10.90;5.22;;;;;;;2.46;100.00;94907.78;5114303;28;20412;-68
2023/12/15 00:49:11;;;;;;;10.50;5.13;;;;;;;2.54;100.00;94907.63;5113754;28;20048;-68
2023/12/15 00:51:58;;;;;;;10.73;5.23;;;;;;;2.57;100.00;94904.25;5101590;28;20047;-68
2023/12/15 00:54:45;;;;;;;11.98;5.63;;;;;;;2.40;100.00;94916.09;5113093;28;20046;-68
2023/12/15 00:57:32;;;;;;;11.15;5.80;;;;;;;2.51;100.00;94929.97;5092687;28;20054;-69
2023/12/15 01:00:20;;;;;;;17.10;7.03;;;;;;;2.55;100.00;94930.09;5103924;28;20397;-68
2023/12/15 01:03:07;;;;;;;12.48;5.43;;;;;;;2.42;100.00;94931.25;5112909;28;20047;-68
2023/12/15 01:05:54;;;;;;;9.90;4.67;;;;;;;2.48;100.00;94929.91;5113023;28;20124;-68
2023/12/15 01:08:41;;;;;;;10.85;5.50;;;;;;;2.21;100.00;94937.53;5113041;28;20040;-68
2023/12/15 01:11:28;;;;;;;10.88;5.65;;;;;;;2.29;100.00;94938.56;5113338;28;20126;-68
2023/12/15 01:14:15;;;;;;;9.43;5.03;;;;;;;2.07;100.00;94945.19;5112425;28;20174;-68
2023/12/15 01:17:02;;;;;;;10.02;5.20;;;;;;;2.14;100.00;94953.56;5112989;28;20051;-68
2023/12/15 01:19:49;;;;;;;10.83;5.27;;;;;;;1.97;100.00;94957.22;5102667;28;20477;-68
2023/12/15 01:22:36;;;;;;;8.95;4.55;;;;;;;1.99;100.00;94961.22;5112572;28;20043;-68
2023/12/15 01:25:23;;;;;;;10.15;5.07;;;;;;;2.12;100.00;94959.31;5112757;28;20496;-68
2023/12/15 01:28:10;;;;;;;8.23;4.53;;;;;;;2.08;100.00;94960.31;5112912;28;20488;-68
2023/12/15 01:31:01;;;;;;;10.88;4.63;;;;;;;2.19;100.00;94961.44;5112174;28;20484;-67
2023/12/15 01:33:48;;;;;;;9.50;4.53;;;;;;;2.30;100.00;94964.53;5113017;28;20420;-68
2023/12/15 01:36:37;;;;;;;8.90;4.50;;;;;;;2.33;100.00;94966.56;5111801;28;20442;-68
2023/12/15 01:39:24;;;;;;;8.38;4.20;;;;;;;2.33;100.00;94967.34;5110197;28;20043;-69
2023/12/15 01:42:11;;;;;;;8.77;4.35;;;;;;;2.13;100.00;94971.72;5102617;28;20070;-68
2023/12/15 01:44:58;;;;;;;8.70;4.47;;;;;;;1.91;100.00;94980.22;5112558;28;20508;-68
2023/12/15 01:47:45;;;;;;;9.73;4.30;;;;;;;1.96;100.00;94982.75;5112104;28;20500;-68
2023/12/15 01:50:33;;;;;;;8.60;3.80;;;;;;;2.06;100.00;94985.00;5112583;28;20048;-68
2023/12/15 01:53:20;;;;;;;9.38;4.50;;;;;;;2.10;100.00;94993.28;5097509;28;20046;-68
2023/12/15 01:56:09;;;;;;;9.77;4.53;;;;;;;2.00;100.00;94989.06;5112687;28;20048;-68
2023/12/15 01:58:56;;;;;;;11.18;4.60;;;;;;;2.07;100.00;94992.00;5111783;28;20044;-68
2023/12/15 02:01:43;;;;;;;6.90;3.50;;;;;;;2.19;100.00;95008.31;5112240;28;20066;-68
2023/12/15 02:04:30;;;;;;;8.02;3.80;;;;;;;2.09;100.00;95008.69;5112573;28;20136;-68
2023/12/15 02:07:17;;;;;;;7.97;4.30;;;;;;;2.11;100.00;95016.50;5111780;28;20055;-68
2023/12/15 02:10:05;;;;;;;7.25;4.13;;;;;;;2.23;100.00;95023.88;5101435;28;20496;-68
2023/12/15 02:12:52;;;;;;;7.95;4.15;;;;;;;2.34;100.00;95033.16;5112055;28;20062;-68
2023/12/15 02:15:39;;;;;;;9.27;4.20;;;;;;;2.00;100.00;95035.88;5112083;28;20044;-68
2023/12/15 02:18:26;;;;;;;7.43;3.30;;;;;;;2.15;100.00;95039.06;5111991;28;20035;-68
2023/12/15 02:21:13;;;;;;;9.90;4.40;;;;;;;2.15;100.00;95042.59;5113422;28;20062;-68
2023/12/15 02:24:00;;;;;;;8.60;4.10;;;;;;;2.18;100.00;95043.84;5102103;28;20054;-68
2023/12/15 02:26:47;;;;;;;9.13;4.00;;;;;;;2.10;100.00;95048.22;5111279;28;20043;-68
2023/12/15 02:29:34;;;;;;;10.43;4.37;;;;;;;2.18;100.00;95046.53;5110887;28;20047;-68
2023/12/15 02:32:21;;;;;;;9.65;4.55;;;;;;;2.12;100.00;95050.59;5112190;28;20130;-68
2023/12/15 02:35:11;;;;;;;10.18;4.72;;;;;;;2.35;100.00;95050.97;5105627;28;20055;-68
2023/12/15 02:37:59;;;;;;;8.95;4.80;;;;;;;2.43;100.00;95047.38;5105766;28;20172;-68
2023/12/15 02:40:46;;;;;;;11.27;5.20;;;;;;;2.42;100.00;95042.31;5102680;28;20516;-68
2023/12/15 02:43:33;;;;;;;12.07;4.70;;;;;;;2.46;100.00;95052.16;5111388;28;20052;-68
2023/12/15 02:46:20;;;;;;;9.02;4.50;;;;;;;2.02;100.00;95045.59;5112557;28;20051;-68
2023/12/15 02:49:08;;;;;;;9.43;5.10;;;;;;;2.27;100.00;95046.44;5116051;28;20515;-68
2023/12/15 02:51:55;;;;;;;8.15;4.32;;;;;;;2.23;100.00;95050.94;5104077;28;20503;-68
2023/12/15 02:54:41;;;;;;;9.27;4.90;;;;;;;1.74;100.00;95052.34;5114550;28;20511;-69
2023/12/15 02:57:28;;;;;;;9.50;5.10;;;;;;;1.56;100.00;95062.50;5115099;28;20047;-68
2023/12/15 03:00:15;;;;;;;11.52;5.63;;;;;;;1.49;100.00;95056.84;5109298;28;20040;-68
2023/12/15 03:03:02;;;;;;;11.02;5.80;;;;;;;1.43;100.00;95063.56;5108669;28;20044;-68
2023/12/15 03:05:49;;;;;;;10.82;5.35;;;;;;;1.59;100.00;95066.50;5100611;28;20052;-68
2023/12/15 03:08:36;;;;;;;10.68;4.90;;;;;;;1.72;100.00;95076.22;5115383;28;20039;-68
2023/12/15 03:11:23;;;;;;;9.10;4.23;;;;;;;1.60;100.00;95082.38;5100614;28;20052;-68
2023/12/15 03:14:10;;;;;;;9.75;4.68;;;;;;;1.69;100.00;95087.75;5115533;28;20412;-68
2023/12/15 03:16:57;;;;;;;10.43;4.88;;;;;;;1.80;100.00;95083.50;5115987;28;20567;-68
2023/12/15 03:19:44;;;;;;;9.18;4.22;;;;;;;1.67;100.00;95092.69;5115298;28;20480;-68
2023/12/15 03:22:31;;;;;;;8.75;4.45;;;;;;;1.87;100.00;95099.22;5115982;28;20093;-68
2023/12/15 03:25:18;;;;;;;9.00;4.17;;;;;;;1.98;100.00;95105.03;5115382;28;20047;-68
2023/12/15 03:28:05;;;;;;;10.25;4.30;;;;;;;1.99;100.00;95104.69;5115603;28;20044;-68
2023/12/15 03:30:52;;;;;;;9.80;4.63;;;;;;;2.04;100.00;95111.03;5115960;28;20055;-68
2023/12/15 03:33:39;;;;;;;9.88;4.45;;;;;;;1.81;100.00;95116.75;5101351;28;20073;-68
2023/12/15 03:36:26;;;;;;;10.75;4.68;;;;;;;1.88;100.00;95113.53;5114943;28;20035;-68
2023/12/15 03:39:12;;;;;;;35.20;14.30;;;;;;;1.97;100.00;95120.47;5112738;28;20070;-68
2023/12/15 03:42:01;;;;;;;12.13;5.88;;;;;;;2.05;100.00;95131.56;5103598;28;20424;-68
2023/12/15 03:44:48;;;;;;;9.70;4.88;;;;;;;2.21;100.00;95129.81;5114651;28;20051;-69
2023/12/15 03:47:35;;;;;;;8.77;4.47;;;;;;;1.81;100.00;95130.28;5106497;28;20055;-68
2023/12/15 03:50:23;;;;;;;10.60;4.70;;;;;;;1.79;100.00;95129.81;5114449;28;20181;-68
2023/12/15 03:53:10;;;;;;;9.40;4.80;;;;;;;1.90;100.00;95133.75;5114479;28;20047;-68
2023/12/15 03:55:57;;;;;;;11.63;5.10;;;;;;;1.87;100.00;95130.88;5114384;28;20404;-67
2023/12/15 03:58:44;;;;;;;11.15;4.70;;;;;;;1.99;100.00;95133.66;5113995;28;20044;-67
2023/12/15 04:01:31;;;;;;;8.82;4.25;;;;;;;1.96;100.00;95137.03;5099013;28;20043;-68
2023/12/15 04:04:18;;;;;;;11.48;5.32;;;;;;;1.86;100.00;95143.63;5099544;28;20047;-68
2023/12/15 04:07:05;;;;;;;10.03;4.53;;;;;;;1.88;100.00;95148.72;5115183;28;20054;-68
2023/12/15 04:09:52;;;;;;;11.35;5.60;;;;;;;1.97;100.00;95152.97;5115431;28;20385;-68
2023/12/15 04:12:39;;;;;;;11.27;6.05;;;;;;;2.09;100.00;95171.16;5114575;28;20043;-68
2023/12/15 04:15:26;;;;;;;12.07;6.25;;;;;;;2.07;100.00;95167.22;5113317;28;20047;-68
2023/12/15 04:18:13;;;;;;;14.35;6.25;;;;;;;2.09;100.00;95164.97;5113799;28;20043;-67
2023/12/15 04:21:03;;;;;;;11.57;5.50;;;;;;;2.04;100.00;95167.88;5103272;28;20040;-67
2023/12/15 04:23:50;;;;;;;11.45;5.18;;;;;;;2.01;100.00;95166.59;5113805;28;20059;-68
2023/12/15 04:26:37;;;;;;;11.23;5.63;;;;;;;2.12;100.00;95161.63;5113925;28;20408;-68
2023/12/15 04:29:24;;;;;;;12.45;5.50;;;;;;;2.13;100.00;95163.19;5113228;28;20481;-68
2023/12/15 04:32:13;;;;;;;12.23;5.88;;;;;;;2.02;100.00;95175.56;5115376;28;20517;-68
2023/12/15 04:35:00;;;;;;;13.07;6.17;;;;;;;1.91;100.00;95175.94;5113655;28;20055;-68
2023/12/15 04:37:47;;;;;;;12.90;5.80;;;;;;;2.02;100.00;95184.47;5112427;28;20105;-68
2023/12/15 04:40:34;;;;;;;14.80;7.10;;;;;;;2.02;100.00;95191.78;5103115;28;20051;-68
2023/12/15 04:43:20;;;;;;;13.23;6.57;;;;;;;1.94;100.00;95186.09;5112865;28;20507;-69
2023/12/15 04:46:07;;;;;;;66.35;27.90;;;;;;;2.01;100.00;95180.16;5113012;28;20070;-68
2023/12/15 04:48:56;;;;;;;19.73;8.70;;;;;;;2.06;100.00;95190.78;5114176;28;20054;-67
2023/12/15 04:51:43;;;;;;;13.68;6.80;;;;;;;2.00;100.00;95197.53;5112886;28;20050;-68
2023/12/15 04:54:30;;;;;;;16.05;8.07;;;;;;;2.08;100.00;95196.69;5114263;28;20471;-68
2023/12/15 04:57:17;;;;;;;12.80;6.43;;;;;;;2.06;100.00;95201.63;5114494;28;20102;-68
2023/12/15 05:00:05;;;;;;;12.20;5.85;;;;;;;2.02;100.00;95208.81;5112391;28;20039;-68
2023/12/15 05:02:52;;;;;;;13.30;6.33;;;;;;;2.08;100.00;95207.50;5114218;28;20051;-68
2023/12/15 05:05:39;;;;;;;14.57;6.20;;;;;;;2.08;100.00;95214.84;5099747;28;20056;-68
2023/12/15 05:08:26;;;;;;;12.52;6.28;;;;;;;2.12;100.00;95202.22;5113265;28;20050;-68
2023/12/15 05:11:13;;;;;;;13.63;7.07;;;;;;;2.13;100.00;95217.34;5111527;28;20408;-68
2023/12/15 05:14:01;;;;;;;13.45;5.97;;;;;;;2.22;100.00;95218.09;5115121;27;20071;-68
2023/12/15 05:16:48;;;;;;;15.10;6.60;;;;;;;2.15;100.00;95218.63;5108077;28;20052;-68
2023/12/15 05:19:35;;;;;;;14.07;6.57;;;;;;;2.14;100.00;95219.72;5113124;28;20492;-67
2023/12/15 05:22:22;;;;;;;13.20;6.03;;;;;;;1.99;100.00;95228.41;5113202;28;20489;-67
2023/12/15 05:25:09;;;;;;;35.90;16.15;;;;;;;2.06;100.00;95231.41;5112647;28;20426;-67
2023/12/15 05:27:55;;;;;;;16.20;7.50;;;;;;;1.81;100.00;95238.56;5113457;28;20050;-67
2023/12/15 05:30:42;;;;;;;13.77;6.37;;;;;;;1.91;100.00;95240.91;5100204;28;20050;-66
2023/12/15 05:33:30;;;;;;;12.90;5.85;;;;;;;1.70;100.00;95248.97;5111557;28;20122;-65
2023/12/15 05:36:18;;;;;;;13.63;6.18;;;;;;;1.66;100.00;95236.44;5112568;28;20054;-67
2023/12/15 05:39:05;;;;;;;14.27;6.38;;;;;;;1.44;100.00;95240.97;5109656;28;20062;-66
2023/12/15 05:41:52;;;;;;;13.70;6.50;;;;;;;1.53;100.00;95252.56;5104319;28;20377;-68
2023/12/15 05:44:40;;;;;;;12.43;6.43;;;;;;;1.74;100.00;95259.94;5103495;28;20485;-68
2023/12/15 05:47:27;;;;;;;14.70;6.60;;;;;;;1.83;100.00;95259.88;5108278;28;20135;-67
2023/12/15 05:50:15;;;;;;;18.13;8.07;;;;;;;1.89;100.00;95270.22;5112090;28;20491;-67
2023/12/15 05:53:02;;;;;;;13.13;6.32;;;;;;;2.06;100.00;95273.94;5112279;28;20121;-67
2023/12/15 05:55:49;;;;;;;15.40;7.88;;;;;;;2.16;100.00;95281.69;5098182;28;20044;-67
2023/12/15 05:58:36;;;;;;;15.53;6.93;;;;;;;2.16;100.00;95284.41;5113298;28;20400;-68
2023/12/15 06:01:22;;;;;;;14.27;6.32;;;;;;;2.16;100.00;95293.31;5095945;28;20051;-68
2023/12/15 06:04:09;;;;;;;12.98;6.60;;;;;;;2.24;100.00;95296.31;5101953;28;20130;-67
2023/12/15 06:06:56;;;;;;;13.77;5.78;;;;;;;2.28;100.00;95292.59;5110862;28;20058;-67
2023/12/15 06:09:43;;;;;;;11.18;5.50;;;;;;;2.16;100.00;95300.66;5112388;28;20048;-67
2023/12/15 06:12:30;;;;;;;14.57;5.80;;;;;;;2.26;100.00;95321.16;5113315;28;20078;-67
2023/12/15 06:15:17;;;;;;;40.50;13.77;;;;;;;2.24;100.00;95321.47;5096857;28;20072;-67
2023/12/15 06:18:05;;;;;;;82.85;29.23;;;;;;;2.09;100.00;95327.44;5097582;28;20063;-67
2023/12/15 06:20:52;;;;;;;34.38;13.18;;;;;;;2.26;100.00;95343.59;5111619;28;20420;-65
2023/12/15 06:23:39;;;;;;;17.63;7.80;;;;;;;2.31;100.00;95351.53;5111482;28;20050;-66
2023/12/15 06:26:26;;;;;;;15.73;6.87;;;;;;;2.31;100.00;95351.53;5111135;28;20126;-65
2023/12/15 06:29:13;;;;;;;11.77;5.50;;;;;;;2.06;100.00;95355.97;5112483;28;20064;-64
2023/12/15 06:32:00;;;;;;;12.00;5.60;;;;;;;2.13;100.00;95353.56;5111932;28;20480;-67
2023/12/15 06:34:48;;;;;;;12.07;6.13;;;;;;;2.09;100.00;95363.44;5112426;28;20489;-67
2023/12/15 06:37:35;;;;;;;14.90;7.40;;;;;;;1.94;100.00;95361.28;5086402;28;20047;-64
2023/12/15 06:40:22;;;;;;;13.43;6.20;;;;;;;2.12;100.00;95356.59;5112742;28;20404;-65
2023/12/15 06:43:09;;;;;;;19.10;8.05;;;;;;;2.04;100.00;95363.63;5111761;28;20044;-64
2023/12/15 06:45:56;;;;;;;20.63;9.20;;;;;;;2.15;100.00;95372.16;5102800;28;20066;-67
2023/12/15 06:48:43;;;;;;;38.30;12.18;;;;;;;2.13;100.00;95374.41;5096982;28;20464;-65
2023/12/15 06:51:30;;;;;;;28.67;11.68;;;;;;;2.12;100.00;95381.75;5112491;28;20059;-63
2023/12/15 06:54:17;;;;;;;60.70;16.33;;;;;;;2.14;100.00;95373.31;5111019;28;20400;-65
2023/12/15 06:57:04;;;;;;;44.05;13.70;;;;;;;2.18;100.00;95379.66;5113180;28;20048;-64
2023/12/15 06:59:51;;;;;;;59.72;18.33;;;;;;;2.27;100.00;95380.38;5109394;28;20043;-64
2023/12/15 07:02:38;;;;;;;42.78;15.13;;;;;;;2.32;100.00;95384.84;5109973;28;20036;-65
2023/12/15 07:05:25;;;;;;;29.90;13.40;;;;;;;2.34;100.00;95386.09;5112903;28;20047;-65
2023/12/15 07:08:12;;;;;;;28.27;12.30;;;;;;;2.33;100.00;95400.75;5111163;28;20043;-65
2023/12/15 07:10:59;;;;;;;21.00;9.88;;;;;;;2.42;100.00;95405.38;5093863;28;20048;-66
2023/12/15 07:13:46;;;;;;;22.73;10.15;;;;;;;2.40;100.00;95414.59;5101981;28;20413;-65
2023/12/15 07:16:33;;;;;;;18.90;8.55;;;;;;;2.44;100.00;95422.88;5111507;28;20043;-65
2023/12/15 07:19:20;;;;;;;17.60;7.65;;;;;;;2.38;100.00;95424.19;5110318;28;20054;-65
2023/12/15 07:22:07;;;;;;;17.70;8.03;;;;;;;2.47;100.00;95432.25;5110340;28;20438;-66
2023/12/15 07:24:54;;;;;;;18.70;9.65;;;;;;;2.51;100.00;95433.97;5111095;28;20052;-65
2023/12/15 07:27:41;;;;;;;15.38;7.68;;;;;;;2.59;100.00;95438.56;5111230;28;20044;-65
2023/12/15 07:30:28;;;;;;;13.90;6.97;;;;;;;2.53;100.00;95445.28;5110389;28;20462;-65
2023/12/15 07:33:15;;;;;;;18.80;7.53;;;;;;;2.35;100.00;95457.34;5109796;28;20132;-65
2023/12/15 07:36:02;;;;;;;16.83;6.97;;;;;;;2.37;100.00;95452.38;5100082;28;20488;-65
2023/12/15 07:38:49;;;;;;;18.58;7.38;;;;;;;2.24;100.00;95464.25;5114835;28;20412;-65
2023/12/15 07:41:41;;;;;;;17.02;7.07;;;;;;;2.15;100.00;95464.25;5115027;28;20492;-65
2023/12/15 07:44:28;;;;;;;17.23;6.68;;;;;;;2.34;100.00;95461.19;5113620;28;20511;-65
2023/12/15 07:47:15;;;;;;;15.50;7.53;;;;;;;2.17;100.00;95462.84;5098900;28;20047;-65
2023/12/15 07:50:03;;;;;;;13.53;6.63;;;;;;;2.24;100.00;95466.94;5114419;28;20403;-65
2023/12/15 07:52:50;;;;;;;13.35;6.18;;;;;;;2.41;100.00;95466.88;5114035;28;20530;-65
2023/12/15 07:55:37;;;;;;;14.35;7.25;;;;;;;2.44;100.00;95463.53;5114048;28;20147;-65
2023/12/15 07:58:24;;;;;;;16.88;6.93;;;;;;;2.45;100.00;95475.16;5108019;28;20045;-65
2023/12/15 08:01:10;;;;;;;14.25;6.93;;;;;;;2.53;100.00;95480.53;5090081;28;20051;-66
2023/12/15 08:03:57;;;;;;;18.03;7.40;;;;;;;2.47;100.00;95479.13;5111884;28;20481;-65
2023/12/15 08:06:44;;;;;;;15.10;7.20;;;;;;;2.52;100.00;95487.06;5107032;28;20058;-65
2023/12/15 08:09:31;;;;;;;16.50;7.55;;;;;;;2.65;100.00;95485.25;5112772;28;20503;-65
2023/12/15 08:12:18;;;;;;;15.52;7.28;;;;;;;2.58;100.00;95490.41;5113533;28;20043;-65
2023/12/15 08:15:06;;;;;;;15.73;7.00;;;;;;;2.73;100.00;95487.13;5113140;28;20063;-65
2023/12/15 08:17:53;;;;;;;14.40;6.90;;;;;;;2.82;100.00;95476.25;5113716;28;20047;-66
2023/12/15 08:20:40;;;;;;;13.98;6.07;;;;;;;2.86;100.00;95479.91;5113329;28;20408;-66
2023/12/15 08:23:27;;;;;;;14.40;7.60;;;;;;;2.84;100.00;95484.84;5113458;28;20097;-66
2023/12/15 08:26:27;;;;;;;14.77;7.05;;;;;;;2.92;100.00;95491.38;5113474;28;20492;-65
2023/12/15 08:29:14;;;;;;;15.50;7.07;;;;;;;2.96;100.00;95495.00;5103553;28;20047;-65
2023/12/15 08:32:01;;;;;;;14.20;7.13;;;;;;;2.89;100.00;95505.56;5114480;28;20415;-65
2023/12/15 08:34:48;;;;;;;14.55;7.47;;;;;;;2.83;100.00;95504.94;5113494;28;20151;-65
2023/12/15 08:37:35;;;;;;;14.57;7.90;;;;;;;2.99;100.00;95499.75;5112734;28;20048;-65
2023/12/15 08:40:25;;;;;;;16.58;7.75;;;;;;;3.00;100.00;95509.50;5112887;28;20126;-65
2023/12/15 08:43:13;;;;;;;16.98;8.77;;;;;;;3.09;100.00;95510.22;5112999;28;20044;-65
2023/12/15 08:46:01;;;;;;;19.20;9.57;;;;;;;3.03;100.00;95516.97;5111284;28;20089;-65
2023/12/15 08:48:49;;;;;;;17.52;8.25;;;;;;;2.60;100.00;95517.97;5113008;28;20039;-64
2023/12/15 08:51:36;;;;;;;30.63;20.10;;;;;;;2.46;100.00;95526.31;5112884;28;20501;-65
2023/12/15 08:54:23;;;;;;;19.17;9.05;;;;;;;2.47;100.00;95516.25;5113321;28;20047;-65
2023/12/15 08:57:10;;;;;;;27.75;13.02;;;;;;;2.39;100.00;95521.41;5113174;28;20047;-65
2023/12/15 08:59:58;;;;;;;29.37;12.97;;;;;;;2.52;100.00;95526.94;5113549;28;20081;-65
2023/12/15 09:02:45;;;;;;;19.90;9.70;;;;;;;2.70;100.00;95528.47;5112552;28;20048;-65
2023/12/15 09:05:32;;;;;;;22.42;9.82;;;;;;;2.73;100.00;95527.78;5111613;28;20928;-65
2023/12/15 09:08:40;;;;;;;46.90;17.00;;;;;;;2.99;100.00;95524.97;5111610;28;20497;-65
2023/12/15 09:11:27;;;;;;;60.97;21.02;;;;;;;3.04;100.00;95532.13;5103636;28;20186;-65
2023/12/15 09:14:15;;;;;;;22.20;9.23;;;;;;;3.25;100.00;95534.09;5111040;28;20040;-65
2023/12/15 09:17:03;;;;;;;11.35;5.38;;;;;;;3.07;100.00;95519.81;5108458;28;20049;-66
2023/12/15 09:19:50;;;;;;;16.48;8.00;;;;;;;3.26;100.00;95520.19;5110499;28;20497;-66
2023/12/15 09:22:38;;;;;;;16.20;7.47;;;;;;;3.42;100.00;95535.88;5111687;28;20040;-66
2023/12/15 09:25:25;;;;;;;13.95;7.68;;;;;;;3.34;100.00;95546.47;5111611;28;20044;-65
2023/12/15 09:28:12;;;;;;;15.10;6.90;;;;;;;3.67;100.00;95540.34;5088505;28;20040;-65
2023/12/15 09:30:58;;;;;;;18.75;8.63;;;;;;;3.59;100.00;95550.13;5097116;28;20060;-65
2023/12/15 09:33:45;;;;;;;17.58;8.50;;;;;;;3.58;100.00;95545.03;5110433;28;20153;-66
2023/12/15 09:36:34;;;;;;;15.73;7.43;;;;;;;3.18;100.00;95546.25;5090353;28;20184;-66
2023/12/15 09:39:22;;;;;;;16.77;7.70;;;;;;;3.52;100.00;95546.34;5111152;28;20040;-66
2023/12/15 09:42:09;;;;;;;14.73;8.00;;;;;;;3.78;100.00;95543.44;5109204;28;20112;-66
2023/12/15 09:44:56;;;;;;;12.38;6.38;;;;;;;4.09;100.00;95526.72;5111096;28;20342;-65
2023/12/15 09:47:54;;;;;;;13.13;7.45;;;;;;;4.26;100.00;95527.66;5110810;28;20416;-66
2023/12/15 09:50:48;;;;;;;11.80;6.53;;;;;;;4.17;100.00;95538.63;5108105;28;20448;-66
2023/12/15 09:53:36;;;;;;;12.38;6.47;;;;;;;4.43;100.00;95546.53;5109840;28;21220;-66
2023/12/15 09:56:24;;;;;;;12.67;6.47;;;;;;;4.73;100.00;95530.84;5109907;28;20100;-66
2023/12/15 09:59:11;;;;;;;11.35;5.70;;;;;;;4.90;100.00;95545.34;5110474;28;20044;-66
2023/12/15 10:01:58;;;;;;;12.88;6.63;;;;;;;4.50;100.00;95532.38;5109881;28;20546;-66
2023/12/15 10:04:47;;;;;;;12.15;6.20;;;;;;;4.48;100.00;95535.44;5108922;28;20054;-66
2023/12/15 10:07:34;;;;;;;9.85;5.05;;;;;;;4.59;100.00;95543.97;5108635;28;20052;-66
2023/12/15 10:10:23;;;;;;;10.37;4.90;;;;;;;4.52;100.00;95543.72;5110457;28;20043;-67
2023/12/15 10:13:10;;;;;;;9.27;4.20;;;;;;;4.57;100.00;95540.78;5103853;28;20052;-67
2023/12/15 10:15:57;;;;;;;9.93;5.03;;;;;;;4.63;100.00;95539.44;5109378;28;20047;-66
2023/12/15 10:18:44;;;;;;;8.60;4.60;;;;;;;4.50;100.00;95532.38;5109162;28;20040;-64
2023/12/15 10:21:34;;;;;;;10.00;5.50;;;;;;;4.15;100.00;95540.91;5109157;28;20047;-65
2023/12/15 10:24:23;;;;;;;9.40;4.70;;;;;;;4.27;100.00;95530.06;5110462;28;20047;-65
2023/12/15 10:27:10;;;;;;;7.95;4.13;;;;;;;4.20;100.00;95532.50;5109306;28;20082;-64
2023/12/15 10:29:57;;;;;;;8.85;4.88;;;;;;;4.39;100.00;95537.47;5104910;28;20040;-64
2023/12/15 10:32:44;;;;;;;8.63;4.60;;;;;;;4.63;100.00;95544.06;5108012;28;20055;-65
2023/12/15 10:35:32;;;;;;;8.95;5.10;;;;;;;3.91;100.00;95550.53;5095210;28;20047;-65
2023/12/15 10:38:19;;;;;;;8.07;4.40;;;;;;;4.61;100.00;95547.13;5106335;28;20499;-65
2023/12/15 10:41:07;;;;;;;8.63;4.40;;;;;;;4.51;100.00;95551.06;5107930;28;20043;-65
2023/12/15 10:43:54;;;;;;;8.40;4.57;;;;;;;3.59;100.00;95554.75;5109767;28;20048;-63
2023/12/15 10:46:43;;;;;;;9.25;4.50;;;;;;;4.32;100.00;95556.22;5092325;28;20385;-63
2023/12/15 10:49:31;;;;;;;9.90;5.13;;;;;;;3.57;100.00;95560.53;5096796;28;20043;-64
2023/12/15 10:52:33;;;;;;;10.10;4.67;;;;;;;4.07;100.00;95574.38;5110697;28;20035;-64
2023/12/15 10:55:23;;;;;;;8.75;4.88;;;;;;;4.42;100.00;95566.66;5109858;28;20044;-64
2023/12/15 10:58:12;;;;;;;8.48;4.53;;;;;;;3.84;100.00;95569.25;5106123;28;20082;-64
2023/12/15 11:01:02;;;;;;;10.13;4.88;;;;;;;4.27;100.00;95567.31;5110583;28;20043;-64
2023/12/15 11:03:49;;;;;;;8.07;4.30;;;;;;;4.17;100.00;95569.31;5094383;28;20048;-64
2023/12/15 11:06:36;;;;;;;9.43;4.90;;;;;;;4.39;100.00;95567.34;5102633;28;20051;-64
2023/12/15 11:09:32;;;;;;;10.40;5.80;;;;;;;4.33;100.00;95577.63;5110232;28;20048;-64
2023/12/15 11:12:42;;;;;;;8.40;4.63;;;;;;;4.08;100.00;95576.72;5111959;28;20112;-66
2023/12/15 11:15:30;;;;;;;10.27;4.40;;;;;;;4.85;100.00;95589.09;5113881;28;20415;-64
2023/12/15 11:18:17;;;;;;;9.77;4.57;;;;;;;4.90;100.00;95589.66;5111823;28;20051;-64
2023/12/15 11:21:06;;;;;;;8.83;4.40;;;;;;;4.80;100.00;95576.50;5110174;28;20050;-64
2023/12/15 11:24:02;;;;;;;10.27;4.90;;;;;;;4.83;100.00;95580.47;5112455;28;20420;-64
2023/12/15 11:26:50;;;;;;;7.72;4.20;;;;;;;4.58;100.00;95581.22;5112845;28;20111;-64
2023/12/15 11:29:36;;;;;;;8.90;4.68;;;;;;;4.60;100.00;95578.94;5113010;28;20044;-64
2023/12/15 11:32:33;;;;;;;9.57;5.10;;;;;;;4.17;100.00;95571.25;5092984;28;20497;-64
2023/12/15 11:35:31;;;;;;;8.93;4.50;;;;;;;3.67;100.00;95578.34;5094723;28;20048;-64
2023/12/15 11:38:19;;;;;;;8.07;4.20;;;;;;;3.85;100.00;95579.00;5090120;28;20177;-64
2023/12/15 11:41:08;;;;;;;8.80;4.72;;;;;;;4.74;100.00;95581.38;5092308;28;20052;-64
2023/12/15 11:43:55;;;;;;;8.73;4.40;;;;;;;4.96;100.00;95582.09;5092905;28;20048;-63
2023/12/15 11:46:42;;;;;;;9.25;4.50;;;;;;;4.94;100.00;95576.19;5093517;28;20489;-64
2023/12/15 11:49:29;;;;;;;8.83;4.53;;;;;;;4.84;100.00;95587.50;5089262;28;20040;-64
2023/12/15 11:52:16;;;;;;;8.20;4.43;;;;;;;4.97;100.00;95589.09;5084934;28;20297;-64
2023/12/15 11:55:04;;;;;;;11.40;5.07;;;;;;;5.22;100.00;95597.31;5079951;28;20413;-64
2023/12/15 11:57:51;;;;;;;12.55;6.35;;;;;;;5.18;100.00;95595.25;5090461;28;20526;-64
2023/12/15 12:00:38;;;;;;;9.23;4.80;;;;;;;4.39;100.00;95595.31;5083540;28;20052;-64
2023/12/15 12:03:25;;;;;;;9.10;4.60;;;;;;;4.98;100.00;95586.06;5090319;28;20394;-64
2023/12/15 12:06:20;;;;;;;10.05;5.10;;;;;;;4.41;100.00;95589.56;5089817;28;20047;-64
2023/12/15 12:09:10;;;;;;;9.88;5.15;;;;;;;4.27;100.00;95589.84;5088994;28;20063;-64
2023/12/15 12:11:58;;;;;;;10.45;5.47;;;;;;;4.07;100.00;95593.38;5089419;28;20154;-64
2023/12/15 12:14:45;;;;;;;10.75;5.80;;;;;;;4.45;100.00;95592.38;5089834;28;20048;-64
2023/12/15 12:17:32;;;;;;;10.53;5.43;;;;;;;4.80;100.00;95599.06;5091664;28;20044;-64
2023/12/15 12:20:19;;;;;;;10.10;5.10;;;;;;;4.53;100.00;95597.75;5090334;28;20101;-64
2023/12/15 12:23:06;;;;;;;10.43;5.93;;;;;;;4.42;100.00;95598.50;5090341;28;20127;-64
2023/12/15 12:25:55;;;;;;;8.18;4.78;;;;;;;4.70;100.00;95594.03;5087053;28;20647;-64
2023/12/15 12:28:50;;;;;;;8.50;4.70;;;;;;;4.84;100.00;95599.19;5087434;28;20137;-65
2023/12/15 12:31:38;;;;;;;9.40;5.07;;;;;;;4.96;100.00;95595.69;5105190;28;20401;-64
2023/12/15 12:34:26;;;;;;;9.57;4.80;;;;;;;4.50;100.00;95592.19;5113157;28;20066;-64
2023/12/15 12:37:14;;;;;;;9.48;5.47;;;;;;;4.63;100.00;95593.81;5107730;28;20051;-64
2023/12/15 12:40:05;;;;;;;11.07;4.80;;;;;;;4.18;100.00;95598.06;5110631;28;20043;-64
2023/12/15 12:42:53;;;;;;;8.73;4.57;;;;;;;4.78;100.00;95598.59;5110556;28;20044;-65
2023/12/15 12:45:42;;;;;;;10.30;5.33;;;;;;;4.80;100.00;95601.78;5112894;28;20044;-64
2023/12/15 12:48:30;;;;;;;8.27;4.10;;;;;;;5.36;100.00;95609.44;5112511;28;20048;-64
2023/12/15 12:51:17;;;;;;;10.30;4.50;;;;;;;5.73;100.00;95603.94;5112730;28;20043;-64
2023/12/15 12:54:04;;;;;;;9.27;4.68;;;;;;;5.90;100.00;95608.38;5111533;28;20050;-64
2023/12/15 12:56:51;;;;;;;17.83;5.70;;;;;;;6.07;100.00;95609.25;5111162;28;20070;-64
2023/12/15 12:59:46;;;;;;;14.73;5.53;;;;;;;6.05;100.00;95601.44;5107199;28;20050;-64
2023/12/15 13:02:38;;;;;;;15.05;5.78;;;;;;;6.15;100.00;95606.41;5108350;28;20063;-64